Terminal Aerodrome Forecast
Issued by NWS

Home | Current Version | Previous Version | Text Only | Print | Product List | Glossary On
Versions: 1 2 3 4 5 6 7 8 9 10 11 12 13
421
FTPA31 PHFO 292206 AAA
TAFHJH
TAF AMD
PHJH 292206Z 2922/3018 05012G20KT P6SM FEW025 SCT045
     FM300400 07007KT P6SM FEW025 SCT045
      AMD NOT SKED 3004/3016=

USA.gov is the U.S. government's official web portal to all federal, state and local government web resources and services.